Time;durP1;ratioP1;P1;durP2;ratioP2;P2;SDS_P1;SDS_P2;PMS_P1;PMS_P2;Temp;Humidity;BMP_temperature;BMP_pressure;BME280_temperature;BME280_humidity;BME280_pressure;Samples;Min_cycle;Max_cycle;Signal;HPM_P1;HPM_P2
2024/03/25 00:00:10;;;;;;;;;;;;;;;;;;5099785;28;19914;-46
2024/03/25 00:02:36;;;;;;;;;;;;;;;;;;5099342;28;20258;-45
2024/03/25 00:05:02;;;;;;;;;;;;;;;;;;5099176;28;19927;-45
2024/03/25 00:07:28;;;;;;;;;;;;;;;;;;5099296;28;19908;-45
2024/03/25 00:09:55;;;;;;;;;;;;;;;;;;5099711;28;19908;-45
2024/03/25 00:12:20;;;;;;;;;;;;;;;;;;5099461;28;20363;-45
2024/03/25 00:14:46;;;;;;;;;;;;;;;;;;5099510;28;19931;-45
2024/03/25 00:17:13;;;;;;;;;;;;;;;;;;5099325;28;20019;-45
2024/03/25 00:19:39;;;;;;;;;;;;;;;;;;5099333;28;19908;-45
2024/03/25 00:22:05;;;;;;;;;;;;;;;;;;5099072;28;19955;-45
2024/03/25 00:24:31;;;;;;;;;;;;;;;;;;5098997;28;19931;-45
2024/03/25 00:26:57;;;;;;;;;;;;;;;;;;5098943;28;19908;-45
2024/03/25 00:29:23;;;;;;;;;;;;;;;;;;5099124;28;19957;-45
2024/03/25 00:31:49;;;;;;;;;;;;;;;;;;5099069;28;20356;-45
2024/03/25 00:34:15;;;;;;;;;;;;;;;;;;5099162;28;19926;-45
2024/03/25 00:36:41;;;;;;;;;;;;;;;;;;5098711;28;19959;-45
2024/03/25 00:39:07;;;;;;;;;;;;;;;;;;5098480;28;19915;-45
2024/03/25 00:41:33;;;;;;;;;;;;;;;;;;5098936;28;19914;-45
2024/03/25 00:43:59;;;;;;;;;;;;;;;;;;5098657;28;19912;-45
2024/03/25 00:46:25;;;;;;;;;;;;;;;;;;5098754;28;19904;-45
2024/03/25 00:48:51;;;;;;;;;;;;;;;;;;5098756;28;19990;-45
2024/03/25 00:51:17;;;;;;;;;;;;;;;;;;5098843;28;19959;-45
2024/03/25 00:53:43;;;;;;;;;;;;;;;;;;5098687;28;19904;-45
2024/03/25 00:56:09;;;;;;;;;;;;;;;;;;5098461;28;19916;-46
2024/03/25 00:58:35;;;;;;;;;;;;;;;;;;5098291;28;19908;-45
2024/03/25 01:01:01;;;;;;;;;;;;;;;;;;5098564;28;20279;-45
2024/03/25 01:03:27;;;;;;;;;;;;;;;;;;5098485;28;19915;-45
2024/03/25 01:05:53;;;;;;;;;;;;;;;;;;5098142;28;19923;-45
2024/03/25 01:08:19;;;;;;;;;;;;;;;;;;5098166;28;19912;-45
2024/03/25 01:10:45;;;;;;;;;;;;;;;;;;5098184;28;20391;-45
2024/03/25 01:13:11;;;;;;;;;;;;;;;;;;5098434;28;19915;-46
2024/03/25 01:15:37;;;;;;;;;;;;;;;;;;5098273;28;19908;-45
2024/03/25 01:18:03;;;;;;;;;;;;;;;;;;5098121;28;19909;-45
2024/03/25 01:20:29;;;;;;;;;;;;;;;;;;5098152;28;20394;-45
2024/03/25 01:22:55;;;;;;;;;;;;;;;;;;5098068;28;20031;-45
2024/03/25 01:25:21;;;;;;;;;;;;;;;;;;5098329;28;19908;-45
2024/03/25 01:27:47;;;;;;;;;;;;;;;;;;5098260;28;20391;-45
2024/03/25 01:30:13;;;;;;;;;;;;;;;;;;5097216;28;19908;-45
2024/03/25 01:32:40;;;;;;;;;;;;;;;;;;5097955;28;19934;-45
2024/03/25 01:35:06;;;;;;;;;;;;;;;;;;5098178;28;19908;-45
2024/03/25 01:37:32;;;;;;;;;;;;;;;;;;5098053;28;19915;-46
2024/03/25 01:39:58;;;;;;;;;;;;;;;;;;5097607;28;20380;-45
2024/03/25 01:42:24;;;;;;;;;;;;;;;;;;5098070;28;19908;-45
2024/03/25 01:44:50;;;;;;;;;;;;;;;;;;5098020;28;19999;-45
2024/03/25 01:47:16;;;;;;;;;;;;;;;;;;5097929;28;19930;-45
2024/03/25 01:49:42;;;;;;;;;;;;;;;;;;5098256;28;19908;-45
2024/03/25 01:52:08;;;;;;;;;;;;;;;;;;5097732;28;19930;-45
2024/03/25 01:54:34;;;;;;;;;;;;;;;;;;5097938;28;19994;-45
2024/03/25 01:57:00;;;;;;;;;;;;;;;;;;5097865;28;20396;-45
2024/03/25 01:59:26;;;;;;;;;;;;;;;;;;5098065;28;19908;-45
2024/03/25 02:01:52;;;;;;;;;;;;;;;;;;5097856;28;19904;-45
2024/03/25 02:04:18;;;;;;;;;;;;;;;;;;5097803;28;19920;-45
2024/03/25 02:06:44;;;;;;;;;;;;;;;;;;5097868;28;19957;-45
2024/03/25 02:09:10;;;;;;;;;;;;;;;;;;5097872;28;19908;-45
2024/03/25 02:11:36;;;;;;;;;;;;;;;;;;5097826;28;19904;-45
2024/03/25 02:14:01;;;;;;;;;;;;;;;;;;5097582;28;20003;-45
2024/03/25 02:16:27;;;;;;;;;;;;;;;;;;5097674;28;20394;-45
2024/03/25 02:18:54;;;;;;;;;;;;;;;;;;5097700;28;19908;-45
2024/03/25 02:21:20;;;;;;;;;;;;;;;;;;5097529;28;20371;-45
2024/03/25 02:23:46;;;;;;;;;;;;;;;;;;5097714;28;19927;-45
2024/03/25 02:26:11;;;;;;;;;;;;;;;;;;5097652;28;19916;-45
2024/03/25 02:28:37;;;;;;;;;;;;;;;;;;5097420;28;19908;-46
2024/03/25 02:31:03;;;;;;;;;;;;;;;;;;5096055;28;19958;-45
2024/03/25 02:33:29;;;;;;;;;;;;;;;;;;5097332;28;19909;-45
2024/03/25 02:35:55;;;;;;;;;;;;;;;;;;5097496;28;19908;-45
2024/03/25 02:38:21;;;;;;;;;;;;;;;;;;5097740;28;19908;-46
2024/03/25 02:40:47;;;;;;;;;;;;;;;;;;5097561;28;19908;-45
2024/03/25 02:43:13;;;;;;;;;;;;;;;;;;5100233;28;20002;-45
2024/03/25 02:45:39;;;;;;;;;;;;;;;;;;5101259;28;20391;-45
2024/03/25 02:48:05;;;;;;;;;;;;;;;;;;5100783;28;19915;-45
2024/03/25 02:50:31;;;;;;;;;;;;;;;;;;5100900;28;19908;-45
2024/03/25 02:52:57;;;;;;;;;;;;;;;;;;5101129;28;20367;-45
2024/03/25 02:55:23;;;;;;;;;;;;;;;;;;5101013;28;19908;-45
2024/03/25 02:57:49;;;;;;;;;;;;;;;;;;5100829;28;20389;-45
2024/03/25 03:00:15;;;;;;;;;;;;;;;;;;5101172;28;19971;-45
2024/03/25 03:02:40;;;;;;;;;;;;;;;;;;5100553;28;19911;-45
2024/03/25 03:05:06;;;;;;;;;;;;;;;;;;5100954;28;20342;-45
2024/03/25 03:07:32;;;;;;;;;;;;;;;;;;5100479;28;19908;-45
2024/03/25 03:09:58;;;;;;;;;;;;;;;;;;5100638;28;19934;-45
2024/03/25 03:12:24;;;;;;;;;;;;;;;;;;5100435;28;19926;-45
2024/03/25 03:14:50;;;;;;;;;;;;;;;;;;5100324;28;19912;-45
2024/03/25 03:17:16;;;;;;;;;;;;;;;;;;5100665;28;19912;-46
2024/03/25 03:19:42;;;;;;;;;;;;;;;;;;5100803;28;19923;-45
2024/03/25 03:22:08;;;;;;;;;;;;;;;;;;5100730;28;20371;-45
2024/03/25 03:24:34;;;;;;;;;;;;;;;;;;5100373;28;19908;-45
2024/03/25 03:27:00;;;;;;;;;;;;;;;;;;5100594;28;20264;-46
2024/03/25 03:29:26;;;;;;;;;;;;;;;;;;5100053;28;19969;-45
2024/03/25 03:31:52;;;;;;;;;;;;;;;;;;5100519;28;20290;-45
2024/03/25 03:34:18;;;;;;;;;;;;;;;;;;5099979;28;19915;-45
2024/03/25 03:36:44;;;;;;;;;;;;;;;;;;5100095;28;19911;-45
2024/03/25 03:39:10;;;;;;;;;;;;;;;;;;5100460;28;19929;-46
2024/03/25 03:41:36;;;;;;;;;;;;;;;;;;5098615;28;19909;-45
2024/03/25 03:44:02;;;;;;;;;;;;;;;;;;5100051;28;19943;-45
2024/03/25 03:46:28;;;;;;;;;;;;;;;;;;5099751;28;19915;-45
2024/03/25 03:48:53;;;;;;;;;;;;;;;;;;5099907;28;19916;-45
2024/03/25 03:51:19;;;;;;;;;;;;;;;;;;5099937;28;20321;-45
2024/03/25 03:53:45;;;;;;;;;;;;;;;;;;5099066;28;19909;-45
2024/03/25 03:56:11;;;;;;;;;;;;;;;;;;5099298;28;20011;-45
2024/03/25 03:58:37;;;;;;;;;;;;;;;;;;5099780;28;19944;-45
2024/03/25 04:01:04;;;;;;;;;;;;;;;;;;5099457;28;19930;-45
2024/03/25 04:03:30;;;;;;;;;;;;;;;;;;5097806;28;19995;-45
2024/03/25 04:05:56;;;;;;;;;;;;;;;;;;5099387;28;19948;-45
2024/03/25 04:08:22;;;;;;;;;;;;;;;;;;5099533;28;19908;-45
2024/03/25 04:10:48;;;;;;;;;;;;;;;;;;5099462;28;19930;-45
2024/03/25 04:13:14;;;;;;;;;;;;;;;;;;5099582;28;19922;-45
2024/03/25 04:15:39;;;;;;;;;;;;;;;;;;5098012;28;19918;-46
2024/03/25 04:18:05;;;;;;;;;;;;;;;;;;5099108;28;19962;-46
2024/03/25 04:20:31;;;;;;;;;;;;;;;;;;5099298;28;19908;-46
2024/03/25 04:22:59;;;;;;;;;;;;;;;;;;5099210;28;19914;-45
2024/03/25 04:25:25;;;;;;;;;;;;;;;;;;5098864;28;19908;-45
2024/03/25 04:27:51;;;;;;;;;;;;;;;;;;5099122;28;19999;-45
2024/03/25 04:30:17;;;;;;;;;;;;;;;;;;5098868;28;20272;-46
2024/03/25 04:32:43;;;;;;;;;;;;;;;;;;5099049;28;19908;-46
2024/03/25 04:35:09;;;;;;;;;;;;;;;;;;5098930;28;19919;-46
2024/03/25 04:37:35;;;;;;;;;;;;;;;;;;5098898;28;19920;-46
2024/03/25 04:40:01;;;;;;;;;;;;;;;;;;5099214;28;19915;-45
2024/03/25 04:42:27;;;;;;;;;;;;;;;;;;5098948;28;19908;-45
2024/03/25 04:44:53;;;;;;;;;;;;;;;;;;5098862;28;19913;-45
2024/03/25 04:47:19;;;;;;;;;;;;;;;;;;5098449;28;19908;-45
2024/03/25 04:49:45;;;;;;;;;;;;;;;;;;5098771;28;19957;-46
2024/03/25 04:52:12;;;;;;;;;;;;;;;;;;5098766;28;19904;-46
2024/03/25 04:54:38;;;;;;;;;;;;;;;;;;5099210;28;19919;-45
2024/03/25 04:57:06;;;;;;;;;;;;;;;;;;5098458;28;20355;-45
2024/03/25 04:59:31;;;;;;;;;;;;;;;;;;5098621;28;19915;-45
2024/03/25 05:01:57;;;;;;;;;;;;;;;;;;5098831;28;19908;-45
2024/03/25 05:04:24;;;;;;;;;;;;;;;;;;5097569;28;19920;-46
2024/03/25 05:06:50;;;;;;;;;;;;;;;;;;5098260;28;20389;-45
2024/03/25 05:09:16;;;;;;;;;;;;;;;;;;5098574;28;19909;-45
2024/03/25 05:11:42;;;;;;;;;;;;;;;;;;5098683;28;19930;-46
2024/03/25 05:14:08;;;;;;;;;;;;;;;;;;5098237;28;19995;-45
2024/03/25 05:16:34;;;;;;;;;;;;;;;;;;5098074;28;19958;-46
2024/03/25 05:19:00;;;;;;;;;;;;;;;;;;5098297;28;19908;-46
2024/03/25 05:21:26;;;;;;;;;;;;;;;;;;5098517;28;19909;-45
2024/03/25 05:23:52;;;;;;;;;;;;;;;;;;5098540;28;20245;-46
2024/03/25 05:26:18;;;;;;;;;;;;;;;;;;5098046;28;19916;-45
2024/03/25 05:28:44;;;;;;;;;;;;;;;;;;5098035;28;19962;-46
2024/03/25 05:31:10;;;;;;;;;;;;;;;;;;5098328;28;19909;-45
2024/03/25 05:33:37;;;;;;;;;;;;;;;;;;5097970;28;19924;-45
2024/03/25 05:36:03;;;;;;;;;;;;;;;;;;5098315;28;19991;-45
2024/03/25 05:38:32;;;;;;;;;;;;;;;;;;5097893;28;19916;-45
2024/03/25 05:40:58;;;;;;;;;;;;;;;;;;5097761;28;19908;-45
2024/03/25 05:43:24;;;;;;;;;;;;;;;;;;5098158;28;19915;-46
2024/03/25 05:45:50;;;;;;;;;;;;;;;;;;5097715;28;19912;-45
2024/03/25 05:48:16;;;;;;;;;;;;;;;;;;5097592;28;19915;-45
2024/03/25 05:50:42;;;;;;;;;;;;;;;;;;5096576;28;19912;-45
2024/03/25 05:53:08;;;;;;;;;;;;;;;;;;5096853;28;20011;-46
2024/03/25 05:55:34;;;;;;;;;;;;;;;;;;5096943;28;20340;-45
2024/03/25 05:58:00;;;;;;;;;;;;;;;;;;5097981;28;19955;-46
2024/03/25 06:00:26;;;;;;;;;;;;;;;;;;5096356;28;19908;-45
2024/03/25 06:02:53;;;;;;;;;;;;;;;;;;5097680;28;20003;-45
2024/03/25 06:05:19;;;;;;;;;;;;;;;;;;5097293;28;19924;-45
2024/03/25 06:07:45;;;;;;;;;;;;;;;;;;5097804;28;19915;-45
2024/03/25 06:10:11;;;;;;;;;;;;;;;;;;5097785;28;20364;-45
2024/03/25 06:12:37;;;;;;;;;;;;;;;;;;5097685;28;19908;-46
2024/03/25 06:15:03;;;;;;;;;;;;;;;;;;5097563;28;19915;-45
2024/03/25 06:17:29;;;;;;;;;;;;;;;;;;5101408;28;19916;-45
2024/03/25 06:19:55;;;;;;;;;;;;;;;;;;5101383;28;19908;-45
2024/03/25 06:22:21;;;;;;;;;;;;;;;;;;5101616;28;19962;-45
2024/03/25 06:24:49;;;;;;;;;;;;;;;;;;5101262;28;19955;-45
2024/03/25 06:27:15;;;;;;;;;;;;;;;;;;5101088;28;19909;-45
2024/03/25 06:29:41;;;;;;;;;;;;;;;;;;5101535;28;19974;-45
2024/03/25 06:34:53;;;;;;;;;;;;;;;;;;5101086;28;19914;-45
2024/03/25 06:37:18;;;;;;;;;;;;;;;;;;5101174;28;19919;-45
2024/03/25 06:39:44;;;;;;;;;;;;;;;;;;5101039;28;19909;-45
2024/03/25 06:42:10;;;;;;;;;;;;;;;;;;5101187;28;19955;-45
2024/03/25 06:44:36;;;;;;;;;;;;;;;;;;5101314;28;19904;-45
2024/03/25 06:47:02;;;;;;;;;;;;;;;;;;5101063;28;19912;-45
2024/03/25 06:49:28;;;;;;;;;;;;;;;;;;5101044;28;20520;-45
2024/03/25 06:51:54;;;;;;;;;;;;;;;;;;5101129;28;20301;-45
2024/03/25 06:54:20;;;;;;;;;;;;;;;;;;5100733;28;19904;-45
2024/03/25 06:56:46;;;;;;;;;;;;;;;;;;5101113;28;19919;-45
2024/03/25 06:59:12;;;;;;;;;;;;;;;;;;5100957;28;19955;-45
2024/03/25 07:01:38;;;;;;;;;;;;;;;;;;5100882;28;19908;-45
2024/03/25 07:04:04;;;;;;;;;;;;;;;;;;5100371;28;19923;-45
2024/03/25 07:06:30;;;;;;;;;;;;;;;;;;5100726;28;19957;-45
2024/03/25 07:08:56;;;;;;;;;;;;;;;;;;5100693;28;19912;-46
2024/03/25 07:11:22;;;;;;;;;;;;;;;;;;5100444;28;19908;-45
2024/03/25 07:13:48;;;;;;;;;;;;;;;;;;5100503;28;19923;-46
2024/03/25 07:16:14;;;;;;;;;;;;;;;;;;5100298;28;19912;-45
2024/03/25 07:18:40;;;;;;;;;;;;;;;;;;5100498;28;20045;-45
2024/03/25 07:21:06;;;;;;;;;;;;;;;;;;5100638;28;19908;-45
2024/03/25 07:23:32;;;;;;;;;;;;;;;;;;5100196;28;19915;-45
2024/03/25 07:25:58;;;;;;;;;;;;;;;;;;5100418;28;19943;-45
2024/03/25 07:28:24;;;;;;;;;;;;;;;;;;5099416;28;19908;-45
2024/03/25 07:30:50;;;;;;;;;;;;;;;;;;5100043;28;19912;-45
2024/03/25 07:33:17;;;;;;;;;;;;;;;;;;5100466;28;19908;-45
2024/03/25 07:35:43;;;;;;;;;;;;;;;;;;5100221;28;19904;-45
2024/03/25 07:38:09;;;;;;;;;;;;;;;;;;5100133;28;20424;-45
2024/03/25 07:40:35;;;;;;;;;;;;;;;;;;5100118;28;19908;-45
2024/03/25 07:43:01;;;;;;;;;;;;;;;;;;5099484;28;20279;-46
2024/03/25 07:45:27;;;;;;;;;;;;;;;;;;5099686;28;19951;-45
2024/03/25 07:47:53;;;;;;;;;;;;;;;;;;5099822;28;19958;-45
2024/03/25 07:50:19;;;;;;;;;;;;;;;;;;5099469;28;20344;-45
2024/03/25 07:52:45;;;;;;;;;;;;;;;;;;5098397;28;19908;-45
2024/03/25 07:55:12;;;;;;;;;;;;;;;;;;5099135;28;19915;-45
2024/03/25 07:57:38;;;;;;;;;;;;;;;;;;5099627;28;19916;-45
2024/03/25 08:00:09;;;;;;;;;;;;;;;;;;5099655;28;19915;-45
2024/03/25 08:02:35;;;;;;;;;;;;;;;;;;5099308;28;19958;-45
2024/03/25 08:05:01;;;;;;;;;;;;;;;;;;5099045;28;19920;-45
2024/03/25 08:07:27;;;;;;;;;;;;;;;;;;5099486;28;19908;-45
2024/03/25 08:09:53;;;;;;;;;;;;;;;;;;5099626;28;20003;-45
2024/03/25 08:12:19;;;;;;;;;;;;;;;;;;5099432;28;19916;-46
2024/03/25 08:14:45;;;;;;;;;;;;;;;;;;5099663;28;19908;-45
2024/03/25 08:17:11;;;;;;;;;;;;;;;;;;5099096;28;19967;-45
2024/03/25 08:19:37;;;;;;;;;;;;;;;;;;5099615;28;19908;-45
2024/03/25 08:22:04;;;;;;;;;;;;;;;;;;5099059;28;19949;-45
2024/03/25 08:24:30;;;;;;;;;;;;;;;;;;5099479;28;20010;-46
2024/03/25 08:26:55;;;;;;;;;;;;;;;;;;5098883;28;19997;-45
2024/03/25 08:29:21;;;;;;;;;;;;;;;;;;5099074;28;19908;-45
2024/03/25 08:31:47;;;;;;;;;;;;;;;;;;5099357;28;19904;-45
2024/03/25 08:34:13;;;;;;;;;;;;;;;;;;5099018;28;19915;-45
2024/03/25 08:36:39;;;;;;;;;;;;;;;;;;5098924;28;19923;-45
2024/03/25 08:39:05;;;;;;;;;;;;;;;;;;5098806;28;19911;-45
2024/03/25 08:41:32;;;;;;;;;;;;;;;;;;5098744;28;19910;-45
2024/03/25 08:43:58;;;;;;;;;;;;;;;;;;5098555;28;19916;-45
2024/03/25 08:46:24;;;;;;;;;;;;;;;;;;5098715;28;19939;-45
2024/03/25 08:48:50;;;;;;;;;;;;;;;;;;5099111;28;19955;-46
2024/03/25 08:51:16;;;;;;;;;;;;;;;;;;5098766;28;20600;-45
2024/03/25 08:53:42;;;;;;;;;;;;;;;;;;5098729;28;20379;-45
2024/03/25 08:56:08;;;;;;;;;;;;;;;;;;5098617;28;19905;-46
2024/03/25 08:58:34;;;;;;;;;;;;;;;;;;5098550;28;19914;-45
2024/03/25 09:01:00;;;;;;;;;;;;;;;;;;5098763;28;19943;-46
2024/03/25 09:03:26;;;;;;;;;;;;;;;;;;5098317;28;19916;-45
2024/03/25 09:05:52;;;;;;;;;;;;;;;;;;5098132;28;19924;-45
2024/03/25 09:08:22;;;;;;;;;;;;;;;;;;5097609;28;20148;-45
2024/03/25 09:11:03;;;;;;;;;;;;;;;;;;5098289;28;19911;-45
2024/03/25 09:13:29;;;;;;;;;;;;;;;;;;5098538;28;19912;-45
2024/03/25 09:15:54;;;;;;;;;;;;;;;;;;5098075;28;19909;-46
2024/03/25 09:18:20;;;;;;;;;;;;;;;;;;5098158;28;19915;-45
2024/03/25 09:20:46;;;;;;;;;;;;;;;;;;5098579;28;19908;-46
2024/03/25 09:23:13;;;;;;;;;;;;;;;;;;5098293;28;19915;-45
2024/03/25 09:25:39;;;;;;;;;;;;;;;;;;5098311;28;19909;-45
2024/03/25 09:28:06;;;;;;;;;;;;;;;;;;5098507;28;19986;-45
2024/03/25 09:30:32;;;;;;;;;;;;;;;;;;5098134;28;19978;-45
2024/03/25 09:32:58;;;;;;;;;;;;;;;;;;5098446;28;19912;-45
2024/03/25 09:35:24;;;;;;;;;;;;;;;;;;5098139;28;19915;-45
2024/03/25 09:37:49;;;;;;;;;;;;;;;;;;5098053;28;20394;-45
2024/03/25 09:40:15;;;;;;;;;;;;;;;;;;5098245;28;19912;-45
2024/03/25 09:42:41;;;;;;;;;;;;;;;;;;5098172;28;20264;-45
2024/03/25 09:45:07;;;;;;;;;;;;;;;;;;5098172;28;19923;-45
2024/03/25 09:47:33;;;;;;;;;;;;;;;;;;5097918;28;20291;-45
2024/03/25 09:49:59;;;;;;;;;;;;;;;;;;5097776;28;19996;-45
2024/03/25 09:52:25;;;;;;;;;;;;;;;;;;5101767;28;19908;-45
2024/03/25 09:54:51;;;;;;;;;;;;;;;;;;5101903;28;19908;-45
2024/03/25 09:57:17;;;;;;;;;;;;;;;;;;5101710;28;19912;-45
2024/03/25 09:59:43;;;;;;;;;;;;;;;;;;5101348;28;20425;-46
2024/03/25 10:02:09;;;;;;;;;;;;;;;;;;5101432;28;19912;-45
2024/03/25 10:04:35;;;;;;;;;;;;;;;;;;5101623;28;20344;-45
2024/03/25 10:07:01;;;;;;;;;;;;;;;;;;5101628;28;19908;-45
2024/03/25 10:09:27;;;;;;;;;;;;;;;;;;5101487;28;20000;-45
2024/03/25 10:11:53;;;;;;;;;;;;;;;;;;5101301;28;20351;-45
2024/03/25 10:14:19;;;;;;;;;;;;;;;;;;5101655;28;19935;-45
2024/03/25 10:16:45;;;;;;;;;;;;;;;;;;5101558;28;19912;-45
2024/03/25 10:19:11;;;;;;;;;;;;;;;;;;5101780;28;19916;-45
2024/03/25 10:21:37;;;;;;;;;;;;;;;;;;5101604;28;19904;-45
2024/03/25 10:24:03;;;;;;;;;;;;;;;;;;5101368;28;20352;-45
2024/03/25 10:26:31;;;;;;;;;;;;;;;;;;5101258;28;19914;-45
2024/03/25 10:28:57;;;;;;;;;;;;;;;;;;5101414;28;20004;-45
2024/03/25 10:31:23;;;;;;;;;;;;;;;;;;5101626;28;19921;-45
2024/03/25 10:33:49;;;;;;;;;;;;;;;;;;5101126;28;19904;-46
2024/03/25 10:36:15;;;;;;;;;;;;;;;;;;5101097;28;19995;-45
2024/03/25 10:38:40;;;;;;;;;;;;;;;;;;5101397;28;19908;-46
2024/03/25 10:41:06;;;;;;;;;;;;;;;;;;5101016;28;19957;-45
2024/03/25 10:43:32;;;;;;;;;;;;;;;;;;5101290;28;20376;-45
2024/03/25 10:45:59;;;;;;;;;;;;;;;;;;5101062;28;19916;-45
2024/03/25 10:48:24;;;;;;;;;;;;;;;;;;5100946;28;19908;-45
2024/03/25 10:50:50;;;;;;;;;;;;;;;;;;5100747;28;19944;-45
2024/03/25 10:53:17;;;;;;;;;;;;;;;;;;5098677;28;19912;-45
2024/03/25 10:55:43;;;;;;;;;;;;;;;;;;5099925;28;19915;-45
2024/03/25 10:58:09;;;;;;;;;;;;;;;;;;5099247;28;20011;-46
2024/03/25 11:00:35;;;;;;;;;;;;;;;;;;5098794;28;19931;-45
2024/03/25 11:03:00;;;;;;;;;;;;;;;;;;5099496;28;20268;-45
2024/03/25 11:05:26;;;;;;;;;;;;;;;;;;5100310;28;19920;-46
2024/03/25 11:07:52;;;;;;;;;;;;;;;;;;5100459;28;19968;-45
2024/03/25 11:10:19;;;;;;;;;;;;;;;;;;5100888;28;19909;-45
2024/03/25 11:12:45;;;;;;;;;;;;;;;;;;5100674;28;19904;-45
2024/03/25 11:15:11;;;;;;;;;;;;;;;;;;5100435;28;19908;-46
2024/03/25 11:17:37;;;;;;;;;;;;;;;;;;5100659;28;20413;-46
2024/03/25 11:20:03;;;;;;;;;;;;;;;;;;5100472;28;19908;-45
2024/03/25 11:22:29;;;;;;;;;;;;;;;;;;5100396;28;19905;-45
2024/03/25 11:24:55;;;;;;;;;;;;;;;;;;5100460;28;19957;-45
2024/03/25 11:27:21;;;;;;;;;;;;;;;;;;5100421;28;19904;-45
2024/03/25 11:29:47;;;;;;;;;;;;;;;;;;5099933;28;20324;-46
2024/03/25 11:32:13;;;;;;;;;;;;;;;;;;5100046;28;19994;-45
2024/03/25 11:34:38;;;;;;;;;;;;;;;;;;5100393;28;19915;-45
2024/03/25 11:37:04;;;;;;;;;;;;;;;;;;5099857;28;19939;-45
2024/03/25 11:39:30;;;;;;;;;;;;;;;;;;5100338;28;19940;-45
2024/03/25 11:41:57;;;;;;;;;;;;;;;;;;5099870;28;19961;-45
2024/03/25 11:44:23;;;;;;;;;;;;;;;;;;5099871;28;19908;-45
2024/03/25 11:46:49;;;;;;;;;;;;;;;;;;5099707;28;19908;-45
2024/03/25 11:49:17;;;;;;;;;;;;;;;;;;5099559;28;20260;-45
2024/03/25 11:51:44;;;;;;;;;;;;;;;;;;5099862;28;19908;-45
2024/03/25 11:54:10;;;;;;;;;;;;;;;;;;5099611;28;20005;-45
2024/03/25 11:56:36;;;;;;;;;;;;;;;;;;5099517;28;19912;-45
2024/03/25 11:59:02;;;;;;;;;;;;;;;;;;5099355;28;20431;-46
2024/03/25 12:01:28;;;;;;;;;;;;;;;;;;5099415;28;20314;-45
2024/03/25 12:03:54;;;;;;;;;;;;;;;;;;5099255;28;19969;-46
2024/03/25 12:06:20;;;;;;;;;;;;;;;;;;5099810;28;19994;-45
2024/03/25 12:11:31;;;;;;;;;;;;;;;;;;5099245;28;19911;-45
2024/03/25 12:13:57;;;;;;;;;;;;;;;;;;5099217;28;19908;-46
2024/03/25 12:16:22;;;;;;;;;;;;;;;;;;5099357;28;19912;-45
2024/03/25 12:18:48;;;;;;;;;;;;;;;;;;5099148;28;19915;-45
2024/03/25 12:21:14;;;;;;;;;;;;;;;;;;5099301;28;19908;-45
2024/03/25 12:23:40;;;;;;;;;;;;;;;;;;5099063;28;19969;-45
2024/03/25 12:26:08;;;;;;;;;;;;;;;;;;5099255;28;19912;-45
2024/03/25 12:28:37;;;;;;;;;;;;;;;;;;5099219;28;19950;-46
2024/03/25 12:31:03;;;;;;;;;;;;;;;;;;5098657;28;19969;-46
2024/03/25 12:33:29;;;;;;;;;;;;;;;;;;5098890;28;19912;-45
2024/03/25 12:35:55;;;;;;;;;;;;;;;;;;5099286;28;19950;-45
2024/03/25 12:38:21;;;;;;;;;;;;;;;;;;5098586;28;19912;-46
2024/03/25 12:40:47;;;;;;;;;;;;;;;;;;5098965;28;19908;-46
2024/03/25 12:43:13;;;;;;;;;;;;;;;;;;5098417;28;20369;-45
2024/03/25 12:45:39;;;;;;;;;;;;;;;;;;5099091;28;19912;-45
2024/03/25 12:48:05;;;;;;;;;;;;;;;;;;5098500;28;19904;-45
2024/03/25 12:50:31;;;;;;;;;;;;;;;;;;5098572;28;20256;-45
2024/03/25 12:52:57;;;;;;;;;;;;;;;;;;5098711;28;19911;-45
2024/03/25 12:55:23;;;;;;;;;;;;;;;;;;5097042;28;20332;-46
2024/03/25 12:57:49;;;;;;;;;;;;;;;;;;5098813;28;19990;-45
2024/03/25 13:00:15;;;;;;;;;;;;;;;;;;5098630;28;19991;-45
2024/03/25 13:02:41;;;;;;;;;;;;;;;;;;5098329;28;20000;-45
2024/03/25 13:05:07;;;;;;;;;;;;;;;;;;5098229;28;19920;-45
2024/03/25 13:07:33;;;;;;;;;;;;;;;;;;5098294;28;20397;-46
2024/03/25 13:09:59;;;;;;;;;;;;;;;;;;5098476;28;19912;-46
2024/03/25 13:12:25;;;;;;;;;;;;;;;;;;5098518;28;19922;-45
2024/03/25 13:14:51;;;;;;;;;;;;;;;;;;5098106;28;19930;-46
2024/03/25 13:17:17;;;;;;;;;;;;;;;;;;5098425;28;20318;-45
2024/03/25 13:19:43;;;;;;;;;;;;;;;;;;5098078;28;19950;-45
2024/03/25 13:22:09;;;;;;;;;;;;;;;;;;5098267;28;19916;-46
2024/03/25 13:24:35;;;;;;;;;;;;;;;;;;5098213;28;19943;-45
2024/03/25 13:27:03;;;;;;;;;;;;;;;;;;5097477;28;19908;-45
2024/03/25 13:29:29;;;;;;;;;;;;;;;;;;5098447;28;19915;-45
2024/03/25 13:31:55;;;;;;;;;;;;;;;;;;5098028;28;19909;-45
2024/03/25 13:34:21;;;;;;;;;;;;;;;;;;5098319;28;19908;-45
2024/03/25 13:36:47;;;;;;;;;;;;;;;;;;5098172;28;19912;-45
2024/03/25 13:39:13;;;;;;;;;;;;;;;;;;5097809;28;20452;-45
2024/03/25 13:41:39;;;;;;;;;;;;;;;;;;5098073;28;20019;-45
2024/03/25 13:44:05;;;;;;;;;;;;;;;;;;5098004;28;19916;-45
2024/03/25 13:46:31;;;;;;;;;;;;;;;;;;5096333;28;19908;-46
2024/03/25 13:48:57;;;;;;;;;;;;;;;;;;5097712;28;19912;-46
2024/03/25 13:51:23;;;;;;;;;;;;;;;;;;5095530;28;19930;-45
2024/03/25 13:53:49;;;;;;;;;;;;;;;;;;5095843;28;19987;-45
2024/03/25 13:56:15;;;;;;;;;;;;;;;;;;5096383;28;19931;-45
2024/03/25 13:58:41;;;;;;;;;;;;;;;;;;5096412;28;19908;-45
2024/03/25 14:01:09;;;;;;;;;;;;;;;;;;5096492;28;19908;-46
2024/03/25 14:03:35;;;;;;;;;;;;;;;;;;5097691;28;20379;-45
2024/03/25 14:06:01;;;;;;;;;;;;;;;;;;5097869;28;19931;-45
2024/03/25 14:08:27;;;;;;;;;;;;;;;;;;5097978;28;19908;-45
2024/03/25 14:10:53;;;;;;;;;;;;;;;;;;5097808;28;19960;-45
2024/03/25 14:13:18;;;;;;;;;;;;;;;;;;5097617;28;20002;-45
2024/03/25 14:15:44;;;;;;;;;;;;;;;;;;5097543;28;19908;-45
2024/03/25 14:18:10;;;;;;;;;;;;;;;;;;5097650;28;19927;-46
2024/03/25 14:20:36;;;;;;;;;;;;;;;;;;5097476;28;19908;-45
2024/03/25 14:23:02;;;;;;;;;;;;;;;;;;5097887;28;19914;-46
2024/03/25 14:25:28;;;;;;;;;;;;;;;;;;5097471;28;20671;-45
2024/03/25 14:27:57;;;;;;;;;;;;;;;;;;5097436;28;19916;-45
2024/03/25 14:30:23;;;;;;;;;;;;;;;;;;5096097;28;20022;-45
2024/03/25 14:32:49;;;;;;;;;;;;;;;;;;5097212;28;19922;-45
2024/03/25 14:35:15;;;;;;;;;;;;;;;;;;5097605;28;19908;-45
2024/03/25 14:37:41;;;;;;;;;;;;;;;;;;5099818;28;20010;-45
2024/03/25 14:40:07;;;;;;;;;;;;;;;;;;5101027;28;19912;-45
2024/03/25 14:42:33;;;;;;;;;;;;;;;;;;5101306;28;19915;-45
2024/03/25 14:44:59;;;;;;;;;;;;;;;;;;5101156;28;20384;-45
2024/03/25 14:47:25;;;;;;;;;;;;;;;;;;5101025;28;19961;-45
2024/03/25 14:49:50;;;;;;;;;;;;;;;;;;5101136;28;19952;-45
2024/03/25 14:52:16;;;;;;;;;;;;;;;;;;5100835;28;19915;-46
2024/03/25 14:54:42;;;;;;;;;;;;;;;;;;5101034;28;19915;-45
2024/03/25 14:57:08;;;;;;;;;;;;;;;;;;5100915;28;20343;-45
2024/03/25 14:59:34;;;;;;;;;;;;;;;;;;5101023;28;19915;-45
2024/03/25 15:02:00;;;;;;;;;;;;;;;;;;5100661;28;20355;-45
2024/03/25 15:04:26;;;;;;;;;;;;;;;;;;5100415;28;19920;-46
2024/03/25 15:06:52;;;;;;;;;;;;;;;;;;5100722;28;19908;-46
2024/03/25 15:09:19;;;;;;;;;;;;;;;;;;5100793;28;20363;-45
2024/03/25 15:11:45;;;;;;;;;;;;;;;;;;5100549;28;19905;-45
2024/03/25 15:14:11;;;;;;;;;;;;;;;;;;5100873;28;20379;-46
2024/03/25 15:16:37;;;;;;;;;;;;;;;;;;5100494;28;19958;-45
2024/03/25 15:19:02;;;;;;;;;;;;;;;;;;5100717;28;20256;-46
2024/03/25 15:21:29;;;;;;;;;;;;;;;;;;5100427;28;19953;-45
2024/03/25 15:23:56;;;;;;;;;;;;;;;;;;5100267;28;19909;-45
2024/03/25 15:26:22;;;;;;;;;;;;;;;;;;5100164;28;20431;-46
2024/03/25 15:28:48;;;;;;;;;;;;;;;;;;5099999;28;20389;-45
2024/03/25 15:31:14;;;;;;;;;;;;;;;;;;5100156;28;19943;-46
2024/03/25 15:33:40;;;;;;;;;;;;;;;;;;5100395;28;19918;-45
2024/03/25 15:36:06;;;;;;;;;;;;;;;;;;5100282;28;19904;-45
2024/03/25 15:38:32;;;;;;;;;;;;;;;;;;5100205;28;19934;-45
2024/03/25 15:40:58;;;;;;;;;;;;;;;;;;5099950;28;19936;-45
2024/03/25 15:43:24;;;;;;;;;;;;;;;;;;5099794;28;19912;-46
2024/03/25 15:45:50;;;;;;;;;;;;;;;;;;5100112;28;19958;-46
2024/03/25 15:48:17;;;;;;;;;;;;;;;;;;5099041;28;19970;-45
2024/03/25 15:50:43;;;;;;;;;;;;;;;;;;5099983;28;19908;-45
2024/03/25 15:53:09;;;;;;;;;;;;;;;;;;5099914;28;19916;-46
2024/03/25 15:55:35;;;;;;;;;;;;;;;;;;5099402;28;20003;-46
2024/03/25 15:58:01;;;;;;;;;;;;;;;;;;5099577;28;19955;-46
2024/03/25 16:00:27;;;;;;;;;;;;;;;;;;5099690;28;19915;-45
2024/03/25 16:02:53;;;;;;;;;;;;;;;;;;5099523;28;19991;-46
2024/03/25 16:05:19;;;;;;;;;;;;;;;;;;5097998;28;19924;-46
2024/03/25 16:07:45;;;;;;;;;;;;;;;;;;5099405;28;19904;-46
2024/03/25 16:10:11;;;;;;;;;;;;;;;;;;5099583;28;19915;-46
2024/03/25 16:12:37;;;;;;;;;;;;;;;;;;5099341;28;19911;-45
2024/03/25 16:15:04;;;;;;;;;;;;;;;;;;5099580;28;19912;-45
2024/03/25 16:17:30;;;;;;;;;;;;;;;;;;5099069;28;20361;-45
2024/03/25 16:19:57;;;;;;;;;;;;;;;;;;5099387;28;19908;-45
2024/03/25 16:22:25;;;;;;;;;;;;;;;;;;5099313;28;19993;-45
2024/03/25 16:24:51;;;;;;;;;;;;;;;;;;5099170;28;19909;-46
2024/03/25 16:27:18;;;;;;;;;;;;;;;;;;5099211;28;19908;-45
2024/03/25 16:29:44;;;;;;;;;;;;;;;;;;5098787;28;19912;-45
2024/03/25 16:32:09;;;;;;;;;;;;;;;;;;5098945;28;19912;-45
2024/03/25 16:34:35;;;;;;;;;;;;;;;;;;5098754;28;20426;-45
2024/03/25 16:37:01;;;;;;;;;;;;;;;;;;5099022;28;19912;-46
2024/03/25 16:39:27;;;;;;;;;;;;;;;;;;5099225;28;20325;-46
2024/03/25 16:41:53;;;;;;;;;;;;;;;;;;5098807;28;20264;-46